Time;durP1;ratioP1;P1;durP2;ratioP2;P2;SDS_P1;SDS_P2;PMS_P1;PMS_P2;Temp;Humidity;BMP_temperature;BMP_pressure;BME280_temperature;BME280_humidity;BME280_pressure;Samples;Min_cycle;Max_cycle;Signal;HPM_P1;HPM_P2
2023/05/04 03:01:39;;;;;;;;;;;19.40;52.60;;;;;;5407491;23;45042;-59
2023/05/04 03:04:05;;;;;;;;;;;19.40;52.70;;;;;;4941504;28;44896;-60
2023/05/04 03:06:31;;;;;;;;;;;19.40;52.70;;;;;;4913701;28;46902;-60
2023/05/04 03:08:56;;;;;;;;;;;19.40;52.70;;;;;;4949856;28;45328;-60
2023/05/04 03:11:22;;;;;;;;;;;19.40;52.70;;;;;;4911299;28;45759;-59
2023/05/04 03:13:47;;;;;;;;;;;19.30;52.70;;;;;;4921324;28;45264;-60
2023/05/04 03:16:12;;;;;;;;;;;19.30;52.70;;;;;;4893602;28;46539;-60
2023/05/04 03:18:38;;;;;;;;;;;19.30;52.70;;;;;;4923545;28;45304;-61
2023/05/04 03:21:03;;;;;;;;;;;19.30;52.60;;;;;;4922432;28;45790;-58
2023/05/04 03:23:29;;;;;;;;;;;19.30;52.70;;;;;;4906939;28;45783;-61
2023/05/04 03:25:55;;;;;;;;;;;19.30;52.70;;;;;;4934940;28;45400;-60
2023/05/04 03:28:20;;;;;;;;;;;19.30;52.70;;;;;;4924270;28;45283;-59
2023/05/04 03:30:46;;;;;;;;;;;19.30;52.60;;;;;;4916307;28;45395;-60
2023/05/04 03:33:12;;;;;;;;;;;19.30;52.70;;;;;;4927025;28;46612;-60
2023/05/04 03:35:37;;;;;;;;;;;19.30;52.70;;;;;;4918171;28;46354;-59
2023/05/04 03:38:05;;;;;;;;;;;19.30;52.70;;;;;;4923342;28;44603;-58
2023/05/04 03:40:31;;;;;;;;;;;19.30;52.70;;;;;;4923317;28;45357;-59
2023/05/04 03:42:56;;;;;;;;;;;19.30;52.70;;;;;;4928720;28;45338;-58
2023/05/04 03:45:22;;;;;;;;;;;19.30;52.70;;;;;;4911663;28;45467;-59
2023/05/04 03:47:47;;;;;;;;;;;19.30;52.70;;;;;;4893856;28;45208;-58
2023/05/04 03:50:13;;;;;;;;;;;19.30;52.70;;;;;;4921858;28;45445;-61
2023/05/04 03:52:38;;;;;;;;;;;19.30;52.70;;;;;;4921986;28;45520;-60
2023/05/04 03:55:04;;;;;;;;;;;19.30;52.70;;;;;;4923871;28;46479;-62
2023/05/04 03:57:29;;;;;;;;;;;19.30;52.70;;;;;;4919834;28;46771;-59
2023/05/04 03:59:55;;;;;;;;;;;19.20;52.70;;;;;;4920928;28;45188;-60
2023/05/04 04:02:20;;;;;;;;;;;19.30;52.70;;;;;;4908946;28;45017;-60
2023/05/04 04:04:46;;;;;;;;;;;19.30;52.80;;;;;;4924263;28;45339;-61
2023/05/04 04:07:11;;;;;;;;;;;19.30;52.70;;;;;;4920801;28;45362;-60
2023/05/04 04:09:37;;;;;;;;;;;19.30;52.70;;;;;;4926509;28;45257;-59
2023/05/04 04:12:02;;;;;;;;;;;19.20;52.70;;;;;;4922529;28;45470;-60
2023/05/04 04:14:28;;;;;;;;;;;19.20;52.70;;;;;;4925785;28;45570;-59
2023/05/04 04:16:53;;;;;;;;;;;19.20;52.70;;;;;;4911583;28;45303;-61
2023/05/04 04:19:19;;;;;;;;;;;19.20;52.70;;;;;;4919693;28;45787;-60
2023/05/04 04:21:44;;;;;;;;;;;19.20;52.70;;;;;;4919388;28;45462;-60
2023/05/04 04:24:10;;;;;;;;;;;19.20;52.70;;;;;;4925204;28;45284;-60
2023/05/04 04:26:35;;;;;;;;;;;19.20;52.70;;;;;;4921119;28;45507;-57
2023/05/04 04:29:01;;;;;;;;;;;19.20;52.60;;;;;;4923790;28;46311;-60
2023/05/04 04:31:26;;;;;;;;;;;19.20;52.60;;;;;;4912841;28;45297;-60
2023/05/04 04:33:52;;;;;;;;;;;19.20;52.70;;;;;;4907351;28;45738;-58
2023/05/04 04:36:18;;;;;;;;;;;19.20;52.70;;;;;;4923167;28;45140;-59
2023/05/04 04:38:43;;;;;;;;;;;19.20;52.70;;;;;;4924046;28;45299;-60
2023/05/04 04:41:09;;;;;;;;;;;19.20;52.70;;;;;;4917914;28;46186;-60
2023/05/04 04:43:35;;;;;;;;;;;19.20;52.60;;;;;;4904241;28;45731;-59
2023/05/04 04:46:01;;;;;;;;;;;19.20;52.70;;;;;;4920562;28;45177;-59
2023/05/04 04:48:26;;;;;;;;;;;19.20;52.70;;;;;;4925391;28;44973;-61
2023/05/04 04:50:52;;;;;;;;;;;19.20;52.70;;;;;;4924383;28;45225;-59
2023/05/04 04:53:18;;;;;;;;;;;19.20;52.70;;;;;;4929055;28;45334;-61
2023/05/04 04:55:43;;;;;;;;;;;19.20;52.70;;;;;;4922975;28;45640;-59
2023/05/04 04:58:09;;;;;;;;;;;19.20;52.70;;;;;;4925678;28;45344;-60
2023/05/04 05:00:34;;;;;;;;;;;19.20;52.70;;;;;;4918904;28;45588;-60
2023/05/04 05:03:00;;;;;;;;;;;19.20;52.70;;;;;;4941374;28;47071;-60
2023/05/04 05:05:26;;;;;;;;;;;19.20;52.70;;;;;;4921282;28;45271;-60
2023/05/04 05:07:51;;;;;;;;;;;19.20;52.60;;;;;;4911284;28;45085;-59
2023/05/04 05:10:17;;;;;;;;;;;19.20;52.70;;;;;;4918539;28;46473;-60
2023/05/04 05:12:43;;;;;;;;;;;19.20;52.60;;;;;;4933549;28;45281;-58
2023/05/04 05:15:08;;;;;;;;;;;19.20;52.60;;;;;;4929277;28;45164;-59
2023/05/04 05:17:36;;;;;;;;;;;19.20;52.60;;;;;;4927550;28;46340;-58
2023/05/04 05:20:11;;;;;;;;;;;19.20;52.40;;;;;;4908370;28;45144;-57
2023/05/04 05:22:37;;;;;;;;;;;19.40;52.00;;;;;;4906446;28;45565;-60
2023/05/04 05:25:03;;;;;;;;;;;19.50;51.60;;;;;;4930006;28;45176;-63
2023/05/04 05:27:29;;;;;;;;;;;19.60;51.40;;;;;;4927221;28;45232;-59
2023/05/04 05:29:54;;;;;;;;;;;19.70;51.10;;;;;;4927129;28;45390;-57
2023/05/04 05:32:20;;;;;;;;;;;19.80;50.80;;;;;;4914597;28;46433;-58
2023/05/04 05:34:46;;;;;;;;;;;19.90;50.60;;;;;;4923991;28;45317;-55
2023/05/04 05:37:11;;;;;;;;;;;20.00;50.50;;;;;;4905592;28;45053;-60
2023/05/04 05:39:37;;;;;;;;;;;20.00;50.30;;;;;;4927713;28;45465;-59
2023/05/04 05:42:02;;;;;;;;;;;20.10;50.30;;;;;;4917224;28;47362;-60
2023/05/04 05:44:28;;;;;;;;;;;20.20;50.00;;;;;;4933401;28;44800;-57
2023/05/04 05:46:54;;;;;;;;;;;20.20;49.90;;;;;;4922072;28;44977;-61
2023/05/04 05:49:20;;;;;;;;;;;20.00;50.40;;;;;;4914220;28;45322;-61
2023/05/04 05:51:45;;;;;;;;;;;19.90;50.80;;;;;;4906439;28;45554;-61
2023/05/04 05:54:11;;;;;;;;;;;19.70;48.90;;;;;;4934037;28;45277;-60
2023/05/04 05:56:36;;;;;;;;;;;19.50;48.20;;;;;;4923898;28;44824;-59
2023/05/04 05:59:02;;;;;;;;;;;19.30;47.40;;;;;;4933067;28;44841;-60
2023/05/04 06:01:27;;;;;;;;;;;19.20;47.20;;;;;;4919068;28;47297;-62
2023/05/04 06:03:53;;;;;;;;;;;19.10;46.90;;;;;;4926351;28;45328;-61
2023/05/04 06:06:18;;;;;;;;;;;19.10;46.60;;;;;;4912943;28;45317;-63
2023/05/04 06:08:44;;;;;;;;;;;19.10;46.50;;;;;;4908780;28;45273;-60
2023/05/04 06:11:10;;;;;;;;;;;19.10;47.30;;;;;;4925566;28;45294;-62
2023/05/04 06:13:36;;;;;;;;;;;19.20;46.90;;;;;;4906724;28;45981;-60
2023/05/04 06:16:01;;;;;;;;;;;19.20;47.10;;;;;;4923432;28;45422;-62
2023/05/04 06:18:27;;;;;;;;;;;19.20;47.60;;;;;;4930746;28;45393;-63
2023/05/04 06:20:59;;;;;;;;;;;19.30;48.20;;;;;;4928319;28;45312;-58
2023/05/04 06:23:25;;;;;;;;;;;19.30;48.40;;;;;;4909617;28;45370;-60
2023/05/04 06:25:51;;;;;;;;;;;19.30;48.50;;;;;;4922313;28;45334;-61
2023/05/04 06:28:16;;;;;;;;;;;19.30;48.50;;;;;;4926249;28;45397;-61
2023/05/04 06:30:43;;;;;;;;;;;19.30;48.50;;;;;;4924826;28;45438;-62
2023/05/04 06:33:09;;;;;;;;;;;19.30;48.60;;;;;;4923186;28;45241;-61
2023/05/04 06:35:34;;;;;;;;;;;19.30;48.70;;;;;;4913593;28;45358;-59
2023/05/04 06:38:00;;;;;;;;;;;19.40;48.80;;;;;;4916353;28;45542;-61
2023/05/04 06:40:25;;;;;;;;;;;19.40;48.70;;;;;;4914402;28;46335;-61
2023/05/04 06:42:51;;;;;;;;;;;19.50;48.70;;;;;;4928412;28;44770;-60
2023/05/04 06:45:16;;;;;;;;;;;19.50;48.80;;;;;;4941760;28;45175;-61
2023/05/04 06:47:42;;;;;;;;;;;19.50;48.80;;;;;;4911667;28;46010;-59
2023/05/04 06:50:08;;;;;;;;;;;19.60;48.90;;;;;;4931073;28;45334;-59
2023/05/04 06:52:34;;;;;;;;;;;19.60;48.90;;;;;;4889640;28;45265;-59
2023/05/04 06:55:00;;;;;;;;;;;19.60;48.90;;;;;;4934080;28;45447;-60
2023/05/04 06:57:27;;;;;;;;;;;19.60;49.00;;;;;;4908719;28;45241;-59
2023/05/04 06:59:53;;;;;;;;;;;19.60;49.10;;;;;;4925262;28;45863;-60
2023/05/04 07:02:19;;;;;;;;;;;19.70;49.10;;;;;;4922963;28;45914;-60
2023/05/04 07:04:44;;;;;;;;;;;19.70;49.20;;;;;;4932487;28;45414;-60
2023/05/04 07:07:10;;;;;;;;;;;19.70;49.20;;;;;;4911527;28;45622;-58
2023/05/04 07:09:36;;;;;;;;;;;19.70;49.30;;;;;;4925195;28;46018;-60
2023/05/04 07:12:03;;;;;;;;;;;19.70;49.20;;;;;;4930698;28;45166;-60
2023/05/04 07:14:29;;;;;;;;;;;19.80;49.40;;;;;;4924907;28;45537;-60
2023/05/04 07:16:54;;;;;;;;;;;19.80;49.20;;;;;;4921889;28;45571;-58
2023/05/04 07:19:20;;;;;;;;;;;19.80;49.30;;;;;;4912023;28;45934;-61
2023/05/04 07:21:46;;;;;;;;;;;19.90;49.30;;;;;;4898725;28;45228;-60
2023/05/04 07:24:11;;;;;;;;;;;19.90;49.30;;;;;;4926064;28;45494;-58
2023/05/04 07:26:37;;;;;;;;;;;19.90;49.40;;;;;;4923022;28;45146;-59
2023/05/04 07:29:03;;;;;;;;;;;20.00;49.40;;;;;;4937492;28;45396;-61
2023/05/04 07:31:28;;;;;;;;;;;20.00;49.40;;;;;;4920195;28;45329;-62
2023/05/04 07:33:54;;;;;;;;;;;20.00;49.30;;;;;;4927547;28;44695;-60
2023/05/04 07:36:19;;;;;;;;;;;20.00;49.40;;;;;;4932111;28;45427;-59
2023/05/04 07:38:45;;;;;;;;;;;20.00;49.30;;;;;;4928173;28;45565;-60
2023/05/04 07:41:10;;;;;;;;;;;20.10;49.40;;;;;;4926915;28;45313;-61
2023/05/04 07:43:36;;;;;;;;;;;20.10;49.40;;;;;;4928171;28;44845;-60
2023/05/04 07:46:02;;;;;;;;;;;20.10;49.40;;;;;;4921632;28;45166;-59
2023/05/04 07:48:27;;;;;;;;;;;20.10;49.40;;;;;;4911842;28;46749;-61
2023/05/04 07:50:53;;;;;;;;;;;20.10;49.40;;;;;;4921921;28;45553;-59
2023/05/04 07:53:19;;;;;;;;;;;20.20;49.60;;;;;;4947086;28;45250;-60
2023/05/04 07:55:45;;;;;;;;;;;20.20;49.50;;;;;;4923631;28;44775;-60
2023/05/04 07:58:12;;;;;;;;;;;20.20;49.60;;;;;;4914977;28;45455;-60
2023/05/04 08:00:38;;;;;;;;;;;20.20;49.60;;;;;;4901501;28;45334;-60
2023/05/04 08:03:03;;;;;;;;;;;20.30;49.50;;;;;;4931519;28;45753;-61
2023/05/04 08:05:29;;;;;;;;;;;20.30;49.60;;;;;;4923847;28;45274;-63
2023/05/04 08:07:54;;;;;;;;;;;20.30;49.60;;;;;;4943871;28;45535;-59
2023/05/04 08:10:20;;;;;;;;;;;20.30;49.60;;;;;;4925211;28;45403;-60
2023/05/04 08:12:45;;;;;;;;;;;20.40;49.60;;;;;;4913369;28;45221;-59
2023/05/04 08:15:11;;;;;;;;;;;20.30;49.60;;;;;;4909443;28;45344;-59
2023/05/04 08:17:39;;;;;;;;;;;20.40;49.60;;;;;;4903506;28;45425;-60
2023/05/04 08:20:06;;;;;;;;;;;20.40;49.60;;;;;;4908943;28;46093;-63
2023/05/04 08:22:32;;;;;;;;;;;20.40;49.60;;;;;;4905592;28;44857;-58
2023/05/04 08:24:57;;;;;;;;;;;20.50;49.70;;;;;;4932003;28;44662;-57
2023/05/04 08:27:23;;;;;;;;;;;20.40;49.60;;;;;;4920925;28;45870;-61
2023/05/04 08:29:48;;;;;;;;;;;20.50;49.60;;;;;;4909386;28;45189;-63
2023/05/04 08:32:14;;;;;;;;;;;20.50;49.70;;;;;;4922162;28;45345;-59
2023/05/04 08:34:39;;;;;;;;;;;20.50;49.60;;;;;;4926762;28;45681;-60
2023/05/04 08:37:05;;;;;;;;;;;20.60;49.60;;;;;;4928969;28;45569;-61
2023/05/04 08:39:30;;;;;;;;;;;20.60;49.70;;;;;;4902986;28;45443;-62
2023/05/04 08:41:56;;;;;;;;;;;20.60;49.60;;;;;;4895218;28;45301;-61
2023/05/04 08:44:21;;;;;;;;;;;20.60;49.60;;;;;;4942717;28;45525;-61
2023/05/04 08:46:51;;;;;;;;;;;20.60;49.60;;;;;;4934529;28;46665;-61
2023/05/04 08:49:17;;;;;;;;;;;20.60;49.60;;;;;;4905362;28;45390;-60
2023/05/04 08:51:43;;;;;;;;;;;20.70;49.70;;;;;;4917777;28;45587;-61
2023/05/04 08:54:09;;;;;;;;;;;20.70;49.70;;;;;;4899068;28;45330;-64
2023/05/04 08:56:35;;;;;;;;;;;20.70;49.70;;;;;;4921475;28;45778;-62
2023/05/04 08:59:02;;;;;;;;;;;20.70;49.60;;;;;;4910987;28;45593;-63
2023/05/04 09:01:28;;;;;;;;;;;20.70;49.60;;;;;;4900769;28;45349;-66
2023/05/04 09:03:53;;;;;;;;;;;20.80;49.70;;;;;;4938146;28;45870;-63
2023/05/04 09:06:19;;;;;;;;;;;20.80;49.70;;;;;;4928313;28;45302;-63
2023/05/04 09:08:45;;;;;;;;;;;20.80;49.60;;;;;;4937732;28;44707;-62
2023/05/04 09:11:10;;;;;;;;;;;20.80;49.60;;;;;;4899502;28;45369;-63
2023/05/04 09:13:37;;;;;;;;;;;20.80;49.60;;;;;;4928508;28;45601;-63
2023/05/04 09:16:03;;;;;;;;;;;20.90;49.70;;;;;;4902273;28;45597;-62
2023/05/04 09:18:38;;;;;;;;;;;20.90;49.70;;;;;;4912820;28;45620;-63
2023/05/04 09:21:03;;;;;;;;;;;20.90;49.70;;;;;;4921381;28;45524;-63
2023/05/04 09:23:29;;;;;;;;;;;20.90;49.70;;;;;;4908751;28;44987;-63
2023/05/04 09:25:54;;;;;;;;;;;20.90;49.60;;;;;;4925626;28;45661;-62
2023/05/04 09:28:20;;;;;;;;;;;21.00;49.70;;;;;;4935655;28;45155;-62
2023/05/04 09:30:47;;;;;;;;;;;21.00;49.70;;;;;;4889975;28;45311;-63
2023/05/04 09:33:14;;;;;;;;;;;21.00;49.60;;;;;;4908588;28;45371;-63
2023/05/04 09:35:40;;;;;;;;;;;21.10;49.70;;;;;;4937845;28;45321;-63
2023/05/04 09:38:06;;;;;;;;;;;21.10;49.70;;;;;;4911460;28;46601;-63
2023/05/04 09:40:32;;;;;;;;;;;21.10;49.70;;;;;;4920214;28;44798;-62
2023/05/04 09:42:57;;;;;;;;;;;21.10;49.70;;;;;;4941513;28;45398;-62
2023/05/04 09:45:23;;;;;;;;;;;21.10;49.60;;;;;;4923494;28;46165;-61
2023/05/04 09:47:51;;;;;;;;;;;21.10;49.60;;;;;;4927033;28;45331;-62
2023/05/04 09:50:24;;;;;;;;;;;21.10;49.70;;;;;;4927753;28;45858;-63
2023/05/04 09:52:50;;;;;;;;;;;21.10;49.70;;;;;;4915403;28;45546;-63
2023/05/04 09:55:18;;;;;;;;;;;21.20;49.70;;;;;;4925251;28;45452;-61
2023/05/04 09:57:44;;;;;;;;;;;21.20;49.70;;;;;;4911970;28;44953;-61
2023/05/04 10:00:11;;;;;;;;;;;21.20;49.70;;;;;;4915429;28;45242;-62
2023/05/04 10:02:37;;;;;;;;;;;21.20;49.70;;;;;;4929717;28;44984;-63
2023/05/04 10:05:03;;;;;;;;;;;21.20;49.70;;;;;;4925308;28;45237;-65
2023/05/04 10:07:30;;;;;;;;;;;21.20;49.70;;;;;;4945666;28;45292;-61
2023/05/04 10:09:56;;;;;;;;;;;21.30;49.80;;;;;;4944226;28;45254;-61
2023/05/04 10:12:21;;;;;;;;;;;21.30;49.80;;;;;;4910087;28;45300;-60
2023/05/04 10:14:47;;;;;;;;;;;21.30;49.70;;;;;;4910616;28;46370;-62
2023/05/04 10:17:31;;;;;;;;;;;21.30;49.80;;;;;;4903777;28;45176;-62
2023/05/04 10:20:15;;;;;;;;;;;21.30;49.70;;;;;;4930970;28;45427;-61
2023/05/04 10:22:41;;;;;;;;;;;21.30;49.70;;;;;;4932023;28;45854;-62
2023/05/04 10:25:23;;;;;;;;;;;21.40;49.80;;;;;;4909788;28;46463;-65
2023/05/04 10:27:55;;;;;;;;;;;21.40;49.80;;;;;;4915433;28;45141;-59
2023/05/04 10:30:20;;;;;;;;;;;21.40;49.70;;;;;;4909373;28;44778;-60
2023/05/04 10:32:52;;;;;;;;;;;21.40;49.80;;;;;;4929083;28;46134;-59
2023/05/04 10:35:18;;;;;;;;;;;21.40;49.80;;;;;;4926749;28;45675;-63
2023/05/04 10:37:49;;;;;;;;;;;21.40;49.70;;;;;;4924812;28;45441;-61
2023/05/04 10:40:14;;;;;;;;;;;21.40;49.70;;;;;;4929303;28;45769;-61
2023/05/04 10:42:41;;;;;;;;;;;21.40;49.70;;;;;;4908920;28;47145;-61
2023/05/04 10:45:08;;;;;;;;;;;21.50;49.70;;;;;;4940399;28;46463;-63
2023/05/04 10:47:34;;;;;;;;;;;21.50;49.70;;;;;;4901939;28;44695;-60
2023/05/04 10:50:06;;;;;;;;;;;21.50;49.60;;;;;;4929758;28;45464;-61
2023/05/04 10:52:32;;;;;;;;;;;21.50;49.60;;;;;;4912340;28;45456;-60
2023/05/04 10:55:00;;;;;;;;;;;21.50;49.70;;;;;;4945189;28;46546;-60
2023/05/04 10:57:27;;;;;;;;;;;21.50;49.60;;;;;;4924895;28;45120;-61
2023/05/04 10:59:54;;;;;;;;;;;21.50;48.30;;;;;;4924571;28;45810;-61
2023/05/04 11:02:23;;;;;;;;;;;21.50;46.90;;;;;;4923351;28;45611;-63
2023/05/04 11:05:04;;;;;;;;;;;21.60;44.20;;;;;;4930225;28;45412;-61
2023/05/04 11:07:35;;;;;;;;;;;21.60;43.20;;;;;;4897227;28;45169;-61
2023/05/04 11:10:01;;;;;;;;;;;21.60;42.80;;;;;;4923918;28;46125;-62
2023/05/04 11:12:26;;;;;;;;;;;21.60;41.80;;;;;;4929261;28;45322;-61
2023/05/04 11:15:01;;;;;;;;;;;21.70;40.60;;;;;;4944595;28;45500;-60
2023/05/04 11:17:27;;;;;;;;;;;21.70;39.80;;;;;;4907141;28;45170;-60
2023/05/04 11:19:53;;;;;;;;;;;21.70;40.10;;;;;;4918181;28;46314;-62
2023/05/04 11:22:18;;;;;;;;;;;21.70;39.80;;;;;;4903698;28;45387;-61
2023/05/04 11:24:44;;;;;;;;;;;21.70;39.50;;;;;;4933222;28;45314;-61
2023/05/04 11:27:22;;;;;;;;;;;21.70;39.70;;;;;;4907460;28;45312;-61
2023/05/04 11:29:57;;;;;;;;;;;21.80;38.90;;;;;;4927865;28;45294;-62
2023/05/04 11:32:36;;;;;;;;;;;21.80;38.50;;;;;;4913584;28;46937;-58
2023/05/04 11:35:02;;;;;;;;;;;21.80;38.10;;;;;;4930392;28;45521;-61
2023/05/04 11:37:28;;;;;;;;;;;21.80;37.30;;;;;;4924369;28;45652;-61
2023/05/04 11:39:55;;;;;;;;;;;21.90;37.50;;;;;;4926166;28;44742;-59
2023/05/04 11:42:21;;;;;;;;;;;21.80;37.40;;;;;;4907918;28;44683;-61
2023/05/04 11:44:46;;;;;;;;;;;21.90;37.30;;;;;;4906542;28;45324;-61
2023/05/04 11:47:12;;;;;;;;;;;21.80;37.60;;;;;;4919190;28;45424;-58
2023/05/04 11:49:38;;;;;;;;;;;21.90;37.30;;;;;;4924458;28;45199;-62
2023/05/04 11:52:06;;;;;;;;;;;21.90;36.90;;;;;;4923279;28;45911;-61
2023/05/04 11:54:32;;;;;;;;;;;21.90;37.20;;;;;;4914109;28;46503;-61
2023/05/04 11:56:58;;;;;;;;;;;21.90;37.00;;;;;;4922080;28;45495;-61
2023/05/04 11:59:23;;;;;;;;;;;21.90;36.60;;;;;;4911684;28;45560;-61
2023/05/04 12:01:49;;;;;;;;;;;21.90;35.90;;;;;;4900560;28;44861;-61
2023/05/04 12:04:14;;;;;;;;;;;21.90;35.40;;;;;;4930180;28;45170;-60
2023/05/04 12:06:40;;;;;;;;;;;21.90;35.50;;;;;;4906952;28;45672;-59
2023/05/04 12:09:05;;;;;;;;;;;22.00;35.50;;;;;;4927626;28;45184;-57
2023/05/04 12:11:31;;;;;;;;;;;22.00;35.90;;;;;;4925169;28;44739;-60
2023/05/04 12:14:04;;;;;;;;;;;22.00;35.60;;;;;;4940329;28;45835;-60
2023/05/04 12:16:29;;;;;;;;;;;22.00;35.60;;;;;;4917368;28;45163;-60
2023/05/04 12:19:04;;;;;;;;;;;22.00;35.60;;;;;;4929830;28;45253;-60
2023/05/04 12:21:30;;;;;;;;;;;22.00;35.80;;;;;;4924748;28;45257;-59
2023/05/04 12:23:59;;;;;;;;;;;22.00;35.70;;;;;;4937417;28;45030;-60
2023/05/04 12:26:25;;;;;;;;;;;22.10;35.60;;;;;;4918663;28;45442;-61
2023/05/04 12:28:50;;;;;;;;;;;22.10;35.60;;;;;;4922453;28;45177;-62
2023/05/04 12:31:16;;;;;;;;;;;22.10;34.90;;;;;;4918350;28;46013;-61
2023/05/04 12:33:41;;;;;;;;;;;22.10;34.90;;;;;;4924804;28;46649;-61
2023/05/04 12:36:07;;;;;;;;;;;22.10;35.00;;;;;;4922098;28;44725;-61
2023/05/04 12:38:33;;;;;;;;;;;22.10;35.10;;;;;;4927972;28;44654;-61
2023/05/04 12:41:01;;;;;;;;;;;22.20;35.00;;;;;;4920934;28;45078;-61
2023/05/04 12:43:26;;;;;;;;;;;22.20;35.30;;;;;;4903466;28;46464;-60
2023/05/04 12:45:52;;;;;;;;;;;22.20;35.00;;;;;;4908092;28;45519;-59
2023/05/04 12:48:19;;;;;;;;;;;22.20;34.70;;;;;;4910626;28;44799;-61
2023/05/04 12:50:44;;;;;;;;;;;22.20;34.40;;;;;;4888091;28;45183;-60
2023/05/04 12:53:10;;;;;;;;;;;22.20;34.60;;;;;;4933916;28;45434;-60
2023/05/04 12:55:35;;;;;;;;;;;22.20;35.80;;;;;;4931086;28;45232;-61
2023/05/04 12:58:02;;;;;;;;;;;22.20;35.00;;;;;;4917315;28;45224;-60
2023/05/04 13:00:30;;;;;;;;;;;22.20;35.20;;;;;;4924782;28;45407;-62
2023/05/04 13:02:55;;;;;;;;;;;22.20;34.90;;;;;;4902008;28;46208;-60
2023/05/04 13:05:22;;;;;;;;;;;22.20;33.80;;;;;;4930362;28;45285;-61
2023/05/04 13:07:47;;;;;;;;;;;22.20;33.60;;;;;;4926237;28;45265;-61
2023/05/04 13:10:14;;;;;;;;;;;22.30;33.10;;;;;;4927471;28;46117;-60
2023/05/04 13:12:40;;;;;;;;;;;22.30;32.80;;;;;;4930109;28;46962;-59
2023/05/04 13:15:05;;;;;;;;;;;22.30;32.40;;;;;;4925951;28;45937;-60
2023/05/04 13:17:32;;;;;;;;;;;22.30;32.40;;;;;;4909391;28;45658;-60
2023/05/04 13:19:58;;;;;;;;;;;22.30;32.00;;;;;;4927441;28;45303;-60
2023/05/04 13:22:23;;;;;;;;;;;22.30;32.30;;;;;;4927325;28;45316;-63
2023/05/04 13:24:49;;;;;;;;;;;22.30;32.70;;;;;;4928624;28;45591;-61
2023/05/04 13:27:15;;;;;;;;;;;22.40;32.40;;;;;;4928178;28;45516;-61
2023/05/04 13:29:40;;;;;;;;;;;22.30;32.50;;;;;;4930524;28;45585;-59
2023/05/04 13:32:06;;;;;;;;;;;22.40;32.60;;;;;;4919075;28;45383;-62
2023/05/04 13:34:33;;;;;;;;;;;22.40;32.50;;;;;;4930345;28;45245;-61
2023/05/04 13:36:58;;;;;;;;;;;22.40;32.00;;;;;;4913548;28;45124;-61
2023/05/04 13:39:24;;;;;;;;;;;22.40;31.90;;;;;;4928599;28;45455;-60
2023/05/04 13:41:50;;;;;;;;;;;22.40;31.40;;;;;;4910034;28;47212;-60
2023/05/04 13:44:15;;;;;;;;;;;22.40;31.20;;;;;;4933448;28;45121;-61
2023/05/04 13:46:41;;;;;;;;;;;22.40;30.60;;;;;;4924259;28;45271;-60
2023/05/04 13:49:06;;;;;;;;;;;22.40;30.60;;;;;;4931470;28;45610;-61
2023/05/04 13:51:33;;;;;;;;;;;22.40;30.50;;;;;;4906512;28;45369;-61
2023/05/04 13:53:59;;;;;;;;;;;22.40;30.40;;;;;;4934368;28;45393;-60
2023/05/04 13:56:24;;;;;;;;;;;22.40;30.50;;;;;;4920970;28;44769;-57
2023/05/04 13:58:50;;;;;;;;;;;22.40;30.00;;;;;;4912860;28;45722;-59
2023/05/04 14:01:16;;;;;;;;;;;22.50;30.10;;;;;;4923065;28;46617;-57
2023/05/04 14:03:41;;;;;;;;;;;22.50;29.90;;;;;;4929449;28;45655;-57
2023/05/04 14:06:07;;;;;;;;;;;22.50;29.90;;;;;;4940240;28;45375;-59
2023/05/04 14:08:32;;;;;;;;;;;22.60;30.10;;;;;;4913209;28;44670;-58
2023/05/04 14:10:58;;;;;;;;;;;22.60;30.90;;;;;;4925625;28;46145;-59
2023/05/04 14:13:23;;;;;;;;;;;22.60;30.90;;;;;;4931196;28;45176;-57
2023/05/04 14:15:49;;;;;;;;;;;22.60;30.70;;;;;;4914326;28;45276;-59
2023/05/04 14:18:15;;;;;;;;;;;22.60;30.80;;;;;;4923001;28;44818;-59
2023/05/04 14:20:40;;;;;;;;;;;22.60;30.50;;;;;;4909172;28;45678;-56
2023/05/04 14:23:06;;;;;;;;;;;22.60;30.00;;;;;;4915669;28;45259;-59
2023/05/04 14:25:31;;;;;;;;;;;22.60;30.20;;;;;;4927649;28;45191;-58
2023/05/04 14:27:57;;;;;;;;;;;22.60;30.20;;;;;;4930646;28;45440;-58
2023/05/04 14:30:22;;;;;;;;;;;22.60;30.00;;;;;;4921884;28;45422;-58
2023/05/04 14:32:55;;;;;;;;;;;22.60;30.00;;;;;;4910722;28;46828;-59
2023/05/04 14:35:20;;;;;;;;;;;22.70;29.90;;;;;;4926699;28;45242;-59
2023/05/04 14:37:48;;;;;;;;;;;22.70;29.70;;;;;;4915709;28;45066;-58
2023/05/04 14:40:13;;;;;;;;;;;22.60;29.70;;;;;;4927115;28;46816;-60
2023/05/04 14:42:39;;;;;;;;;;;22.70;29.90;;;;;;4932047;28;44802;-58
2023/05/04 14:45:05;;;;;;;;;;;22.70;29.70;;;;;;4911949;28;45174;-59
2023/05/04 14:47:32;;;;;;;;;;;22.70;29.90;;;;;;4924768;28;45555;-57
2023/05/04 14:49:57;;;;;;;;;;;22.60;29.80;;;;;;4933137;28;47181;-60
2023/05/04 14:52:23;;;;;;;;;;;22.70;30.00;;;;;;4926805;28;45232;-60
2023/05/04 14:54:49;;;;;;;;;;;22.70;29.80;;;;;;4943663;28;46120;-59
2023/05/04 14:57:14;;;;;;;;;;;22.70;29.90;;;;;;4926980;28;45674;-60
2023/05/04 14:59:40;;;;;;;;;;;22.70;29.90;;;;;;4932009;28;45328;-57
2023/05/04 15:02:06;;;;;;;;;;;22.70;29.80;;;;;;4919117;28;45227;-61
2023/05/04 15:04:32;;;;;;;;;;;22.70;29.70;;;;;;4929881;28;45189;-57
2023/05/04 15:06:58;;;;;;;;;;;22.80;29.60;;;;;;4927305;28;45228;-59
2023/05/04 15:09:24;;;;;;;;;;;22.70;29.40;;;;;;4914229;28;47929;-59
2023/05/04 15:11:49;;;;;;;;;;;22.80;29.70;;;;;;4921109;28;45333;-58
2023/05/04 15:14:15;;;;;;;;;;;22.80;29.40;;;;;;4932773;28;45255;-59
2023/05/04 15:16:40;;;;;;;;;;;22.80;29.20;;;;;;4921354;28;45755;-58
2023/05/04 15:19:06;;;;;;;;;;;22.80;29.30;;;;;;4912349;28;45261;-58
2023/05/04 15:21:31;;;;;;;;;;;22.80;29.40;;;;;;4914407;28;45332;-58
2023/05/04 15:23:57;;;;;;;;;;;22.80;29.50;;;;;;4918460;28;45060;-58
2023/05/04 15:26:22;;;;;;;;;;;22.70;29.40;;;;;;4920679;28;46147;-58
2023/05/04 15:28:48;;;;;;;;;;;22.70;29.20;;;;;;4924769;28;45595;-59
2023/05/04 15:31:14;;;;;;;;;;;22.70;29.40;;;;;;4899038;28;45251;-58
2023/05/04 15:33:40;;;;;;;;;;;22.70;29.30;;;;;;4924934;28;45333;-59
2023/05/04 15:36:06;;;;;;;;;;;22.70;29.30;;;;;;4903267;28;44805;-57
2023/05/04 15:38:32;;;;;;;;;;;22.60;29.40;;;;;;4907698;28;45445;-58
2023/05/04 15:40:57;;;;;;;;;;;22.70;29.40;;;;;;4920665;28;45124;-59
2023/05/04 15:43:23;;;;;;;;;;;22.70;29.50;;;;;;4928939;28;45423;-58
2023/05/04 15:45:50;;;;;;;;;;;22.60;29.20;;;;;;4915813;28;45264;-58
2023/05/04 15:48:17;;;;;;;;;;;22.70;29.30;;;;;;4927765;28;45522;-59
2023/05/04 15:50:42;;;;;;;;;;;22.60;29.20;;;;;;4896776;28;45632;-59
2023/05/04 15:53:07;;;;;;;;;;;22.70;29.00;;;;;;4924383;28;45302;-60
2023/05/04 15:55:33;;;;;;;;;;;22.70;28.90;;;;;;4906865;28;45531;-58
2023/05/04 15:57:59;;;;;;;;;;;22.60;28.90;;;;;;4926158;28;46440;-58
2023/05/04 16:00:24;;;;;;;;;;;22.60;28.90;;;;;;4923928;28;45122;-60
2023/05/04 16:02:50;;;;;;;;;;;22.60;29.00;;;;;;4930961;28;45071;-56
2023/05/04 16:05:16;;;;;;;;;;;22.60;28.70;;;;;;4909624;28;45921;-58
2023/05/04 16:07:41;;;;;;;;;;;22.60;28.80;;;;;;4933505;28;45316;-58
2023/05/04 16:10:07;;;;;;;;;;;22.60;28.70;;;;;;4906229;28;45315;-60
2023/05/04 16:12:32;;;;;;;;;;;22.60;28.40;;;;;;4922414;28;45504;-58
2023/05/04 16:14:58;;;;;;;;;;;22.60;28.50;;;;;;4934252;28;45666;-58
2023/05/04 16:17:23;;;;;;;;;;;22.60;28.40;;;;;;4920963;28;46280;-58
2023/05/04 16:19:49;;;;;;;;;;;22.60;28.20;;;;;;4925131;28;49009;-59
2023/05/04 16:22:14;;;;;;;;;;;22.50;28.20;;;;;;4919793;28;46177;-59
2023/05/04 16:24:40;;;;;;;;;;;22.50;28.30;;;;;;4925483;28;46875;-58
2023/05/04 16:27:05;;;;;;;;;;;22.50;28.50;;;;;;4905625;28;46992;-60
2023/05/04 16:29:31;;;;;;;;;;;22.50;28.50;;;;;;4925372;28;45391;-60
2023/05/04 16:31:56;;;;;;;;;;;22.50;28.50;;;;;;4897253;28;45228;-59
2023/05/04 16:34:22;;;;;;;;;;;22.50;28.30;;;;;;4923231;28;45468;-59
2023/05/04 16:36:47;;;;;;;;;;;22.50;28.40;;;;;;4918419;28;45735;-60
2023/05/04 16:39:13;;;;;;;;;;;22.50;28.90;;;;;;4937661;28;46760;-59
2023/05/04 16:41:38;;;;;;;;;;;22.40;28.60;;;;;;4920044;28;45301;-60
2023/05/04 16:44:04;;;;;;;;;;;22.40;29.00;;;;;;4912166;28;45247;-57
2023/05/04 16:46:30;;;;;;;;;;;22.40;29.10;;;;;;4916155;28;45822;-58
2023/05/04 16:48:55;;;;;;;;;;;22.40;29.30;;;;;;4926573;28;45524;-58
2023/05/04 16:51:21;;;;;;;;;;;22.40;29.30;;;;;;4904684;28;46867;-60
2023/05/04 16:53:46;;;;;;;;;;;22.40;29.40;;;;;;4926073;28;45537;-58
2023/05/04 16:56:16;;;;;;;;;;;22.40;29.20;;;;;;4920249;28;46766;-58
2023/05/04 16:58:41;;;;;;;;;;;22.40;29.40;;;;;;4913626;28;45547;-56
2023/05/04 17:01:07;;;;;;;;;;;22.30;29.10;;;;;;4904504;28;45490;-58
2023/05/04 17:03:32;;;;;;;;;;;22.30;29.20;;;;;;4924769;28;45672;-57
2023/05/04 17:05:58;;;;;;;;;;;22.30;29.70;;;;;;4919918;28;45787;-59
2023/05/04 17:08:23;;;;;;;;;;;22.30;30.20;;;;;;4919890;28;45725;-58
2023/05/04 17:10:49;;;;;;;;;;;22.20;30.60;;;;;;4919951;28;45711;-58